Time;durP1;ratioP1;P1;durP2;ratioP2;P2;SDS_P1;SDS_P2;PMS_P1;PMS_P2;Temp;Humidity;BMP_temperature;BMP_pressure;BME280_temperature;BME280_humidity;BME280_pressure;Samples;Min_cycle;Max_cycle;Signal;HPM_P1;HPM_P2
2021/06/21 00:02:26;48950.00;0.16;85.37;0.00;0.00;0.62;;;;;23.80;1.00;;;;;;2576527;55;1148;-83
2021/06/21 00:04:54;102709.00;0.34;178.25;0.00;0.00;0.62;;;;;24.10;1.00;;;;;;2575642;55;1335;-84
2021/06/21 00:07:23;113139.00;0.38;196.25;0.00;0.00;0.62;;;;;24.00;1.00;;;;;;2577579;55;1959;-85
2021/06/21 00:09:50;155192.00;0.52;268.75;0.00;0.00;0.62;;;;;24.00;1.00;;;;;;2575300;56;1127;-85
2021/06/21 00:12:18;204965.00;0.68;354.47;25656.00;0.09;45.06;;;;;24.10;1.00;;;;;;2578060;55;1116;-86
2021/06/21 00:14:46;100378.00;0.33;174.22;0.00;0.00;0.62;;;;;24.00;1.00;;;;;;2575918;55;1343;-85
2021/06/21 00:17:15;48139.00;0.16;83.97;0.00;0.00;0.62;;;;;23.80;1.00;;;;;;2575454;56;1135;-85
2021/06/21 00:19:42;67312.00;0.22;117.12;0.00;0.00;0.62;;;;;23.60;1.00;;;;;;2577368;55;1171;-86
2021/06/21 00:22:09;182987.00;0.61;316.63;12948.00;0.04;23.06;;;;;23.70;1.00;;;;;;2575649;56;1223;-85
2021/06/21 00:24:37;4948.00;0.02;9.20;0.00;0.00;0.62;;;;;23.70;1.00;;;;;;2575364;56;1333;-85
2021/06/21 00:27:04;345487.00;1.15;596.10;22195.00;0.07;39.07;;;;;23.60;1.00;;;;;;2572704;56;1959;-85
2021/06/21 00:29:31;176346.00;0.59;305.20;0.00;0.00;0.62;;;;;23.30;1.00;;;;;;2575334;55;1118;-85
2021/06/21 00:31:58;70487.00;0.23;122.60;0.00;0.00;0.62;;;;;23.30;1.00;;;;;;2573839;56;1244;-85
2021/06/21 00:34:25;200801.00;0.67;347.30;0.00;0.00;0.62;;;;;23.30;1.00;;;;;;2573330;56;1385;-85
2021/06/21 00:36:52;22660.00;0.08;39.88;0.00;0.00;0.62;;;;;23.20;1.00;;;;;;2573134;55;1187;-85
2021/06/21 00:39:20;24506.00;0.08;43.07;0.00;0.00;0.62;;;;;23.20;1.00;;;;;;2573421;56;1062;-85
2021/06/21 00:41:48;17240.00;0.06;30.49;0.00;0.00;0.62;;;;;23.40;1.00;;;;;;2573549;56;1148;-85
2021/06/21 00:44:15;0.00;0.00;0.62;0.00;0.00;0.62;;;;;23.50;1.00;;;;;;2574015;56;1472;-85
2021/06/21 00:46:42;257744.00;0.86;445.27;0.00;0.00;0.62;;;;;23.60;1.00;;;;;;2574402;56;1952;-86
2021/06/21 00:49:09;58043.00;0.19;101.09;0.00;0.00;0.62;;;;;23.50;1.00;;;;;;2575775;55;1678;-85
2021/06/21 00:51:36;122597.00;0.41;212.56;0.00;0.00;0.62;;;;;23.60;1.00;;;;;;2574160;55;1076;-85
2021/06/21 00:54:03;236645.00;0.79;408.98;0.00;0.00;0.62;;;;;23.50;1.00;;;;;;2573637;56;1369;-85
2021/06/21 00:56:30;99954.00;0.33;173.49;0.00;0.00;0.62;;;;;23.60;1.00;;;;;;2573414;56;1159;-85
2021/06/21 00:59:01;197852.00;0.66;342.23;61079.00;0.20;106.34;;;;;23.60;1.00;;;;;;2573617;56;1124;-85
2021/06/21 01:01:29;87625.00;0.29;152.21;0.00;0.00;0.62;;;;;23.70;1.00;;;;;;2573508;56;1069;-85
2021/06/21 01:03:59;84038.00;0.28;146.01;0.00;0.00;0.62;;;;;24.00;1.00;;;;;;2575393;55;1252;-85
2021/06/21 01:06:25;0.00;0.00;0.62;0.00;0.00;0.62;;;;;24.00;1.00;;;;;;2573993;56;1957;-85
2021/06/21 01:08:53;7096.00;0.02;12.92;0.00;0.00;0.62;;;;;24.00;1.00;;;;;;2575589;55;1640;-82
2021/06/21 01:11:20;161843.00;0.54;280.21;15094.00;0.05;26.77;;;;;23.90;1.00;;;;;;2576194;55;1073;-84
2021/06/21 01:14:09;87826.00;0.29;152.55;0.00;0.00;0.62;;;;;23.80;1.00;;;;;;2573593;56;1260;-84
2021/06/21 01:16:43;23002.00;0.08;40.47;0.00;0.00;0.62;;;;;23.80;1.00;;;;;;2573328;56;1128;-85
2021/06/21 01:19:19;88593.00;0.30;153.88;0.00;0.00;0.62;;;;;23.90;1.00;;;;;;2574316;56;1121;-85
2021/06/21 01:22:34;133246.00;0.44;230.93;0.00;0.00;0.62;;;;;23.80;1.00;;;;;;2575758;55;1105;-85
2021/06/21 01:25:26;58041.00;0.19;101.09;0.00;0.00;0.62;;;;;23.80;1.00;;;;;;2573299;56;1462;-85
2021/06/21 01:28:05;50703.00;0.17;88.40;0.00;0.00;0.62;;;;;23.80;1.00;;;;;;2575436;55;1949;-85
2021/06/21 01:31:02;114746.00;0.38;199.02;48135.00;0.16;83.96;;;;;23.70;1.00;;;;;;2573644;55;1184;-85
2021/06/21 01:33:31;272477.00;0.91;470.60;0.00;0.00;0.62;;;;;23.70;1.00;;;;;;2573376;55;1228;-85
2021/06/21 01:36:02;20446.00;0.07;36.04;0.00;0.00;0.62;;;;;23.80;1.00;;;;;;2572762;55;1745;-85
2021/06/21 01:38:33;246712.00;0.82;426.30;23858.00;0.08;41.95;;;;;24.00;1.00;;;;;;2572897;56;1212;-85
2021/06/21 01:41:05;135785.00;0.45;235.30;7888.00;0.03;14.29;;;;;23.60;1.00;;;;;;2573108;56;1081;-85
2021/06/21 01:43:36;0.00;0.00;0.62;0.00;0.00;0.62;;;;;23.40;1.00;;;;;;2575376;55;1203;-85
2021/06/21 01:46:07;16360.00;0.05;28.97;0.00;0.00;0.62;;;;;23.20;1.00;;;;;;2572972;56;1325;-85
2021/06/21 01:48:42;75870.00;0.25;131.90;0.00;0.00;0.62;;;;;22.90;1.00;;;;;;2573138;56;1934;-84
2021/06/21 01:51:09;98196.00;0.33;170.46;0.00;0.00;0.62;;;;;22.70;1.00;;;;;;2573198;55;1133;-84
2021/06/21 01:53:39;348667.00;1.16;601.57;18565.00;0.06;32.79;;;;;22.50;1.00;;;;;;2572820;56;1207;-85
2021/06/21 01:56:12;100070.00;0.33;173.69;0.00;0.00;0.62;;;;;22.60;1.00;;;;;;2573217;55;1113;-85
2021/06/21 01:58:41;384541.00;1.28;663.23;99725.00;0.33;173.10;;;;;22.80;1.00;;;;;;2573337;56;1171;-85
2021/06/21 02:01:15;88427.00;0.29;153.59;0.00;0.00;0.62;;;;;23.30;1.00;;;;;;2573484;56;1132;-85
2021/06/21 02:03:46;108417.00;0.36;188.10;0.00;0.00;0.62;;;;;23.60;1.00;;;;;;2573137;56;1363;-84
2021/06/21 02:06:14;62656.00;0.21;109.07;0.00;0.00;0.62;;;;;23.20;1.00;;;;;;2575693;55;1709;-85
2021/06/21 02:08:42;286330.00;0.95;494.42;0.00;0.00;0.62;;;;;22.70;1.00;;;;;;2573367;56;1958;-85
2021/06/21 02:11:10;3800.00;0.01;7.21;0.00;0.00;0.62;;;;;22.10;1.00;;;;;;2575127;55;1784;-84
2021/06/21 02:13:39;244237.00;0.81;422.04;41036.00;0.14;71.68;;;;;22.10;1.00;;;;;;2572805;55;1352;-85
2021/06/21 02:16:06;126444.00;0.42;219.20;59487.00;0.20;103.59;;;;;22.20;1.00;;;;;;2572827;56;1130;-85
2021/06/21 02:18:35;109016.00;0.36;189.13;12313.00;0.04;21.96;;;;;22.10;1.00;;;;;;2575418;55;1069;-86
2021/06/21 02:21:05;78572.00;0.26;136.57;0.00;0.00;0.62;;;;;22.00;1.00;;;;;;2575422;55;989;-84
2021/06/21 02:23:33;680994.00;2.27;1174.30;211018.00;0.70;364.89;;;;;22.10;1.00;;;;;;2575843;55;1104;-85
2021/06/21 02:26:01;51173.00;0.17;89.21;0.00;0.00;0.62;;;;;22.50;1.00;;;;;;2573469;56;1347;-86
2021/06/21 02:28:30;383472.00;1.28;661.39;24596.00;0.08;43.23;;;;;22.70;1.00;;;;;;2573515;56;1951;-84
2021/06/21 02:31:00;228007.00;0.76;394.12;16731.00;0.06;29.61;;;;;22.70;1.00;;;;;;2573724;56;1093;-85
2021/06/21 02:33:27;110302.00;0.37;191.35;0.00;0.00;0.62;;;;;22.90;1.00;;;;;;2575943;55;1787;-87
2021/06/21 02:35:54;206969.00;0.69;357.92;56877.00;0.19;99.08;;;;;22.90;1.00;;;;;;2577033;55;1653;-86
2021/06/21 02:38:23;266318.00;0.89;460.01;0.00;0.00;0.62;;;;;22.90;1.00;;;;;;2574377;56;1092;-86
2021/06/21 02:40:50;106745.00;0.36;185.21;40136.00;0.13;70.12;;;;;22.90;1.00;;;;;;2574163;56;1098;-86
2021/06/21 02:43:18;156487.00;0.52;270.99;17588.00;0.06;31.09;;;;;22.50;1.00;;;;;;2576205;55;1253;-86
2021/06/21 02:45:46;157285.00;0.52;272.36;0.00;0.00;0.62;;;;;22.60;1.00;;;;;;2574051;56;1325;-86
2021/06/21 02:48:13;0.00;0.00;0.62;0.00;0.00;0.62;;;;;22.60;1.00;;;;;;2578089;55;1965;-86
2021/06/21 02:50:45;180424.00;0.60;312.22;0.00;0.00;0.62;;;;;22.90;1.00;;;;;;2578282;55;1180;-86
2021/06/21 02:53:26;78032.00;0.26;135.64;0.00;0.00;0.62;;;;;23.00;1.00;;;;;;2575486;56;1120;-86
2021/06/21 02:56:04;24987.00;0.08;43.91;0.00;0.00;0.62;;;;;22.90;1.00;;;;;;2573521;56;1449;-85
2021/06/21 02:58:38;81799.00;0.27;142.14;0.00;0.00;0.62;;;;;22.70;1.00;;;;;;2578440;55;1709;-84
2021/06/21 03:01:09;96474.00;0.32;167.49;0.00;0.00;0.62;;;;;22.70;1.00;;;;;;2576589;55;1117;-82
2021/06/21 03:03:40;311014.00;1.04;536.85;60623.00;0.20;105.55;;;;;22.70;1.00;;;;;;2576345;55;1025;-83
2021/06/21 03:06:09;26001.00;0.09;45.66;0.00;0.00;0.62;;;;;22.80;1.00;;;;;;2577704;55;982;-84
2021/06/21 03:08:39;21484.00;0.07;37.84;0.00;0.00;0.62;;;;;22.90;1.00;;;;;;2573454;56;1981;-84
2021/06/21 03:11:08;117230.00;0.39;203.30;0.00;0.00;0.62;;;;;23.00;1.00;;;;;;2575484;55;1111;-84
2021/06/21 03:13:37;196461.00;0.65;339.83;43370.00;0.14;75.72;;;;;23.20;1.00;;;;;;2575396;55;1546;-85
2021/06/21 03:16:06;0.00;0.00;0.62;0.00;0.00;0.62;;;;;23.40;1.00;;;;;;2575437;55;1416;-85
2021/06/21 03:18:34;36110.00;0.12;63.16;0.00;0.00;0.62;;;;;23.20;1.00;;;;;;2573288;56;1155;-86
2021/06/21 03:21:01;44128.00;0.15;77.03;0.00;0.00;0.62;;;;;23.10;1.00;;;;;;2573548;56;1085;-85
2021/06/21 03:23:31;115460.00;0.38;200.25;0.00;0.00;0.62;;;;;23.00;1.00;;;;;;2573700;56;1137;-85
2021/06/21 03:26:02;245744.00;0.82;424.63;83956.00;0.28;145.87;;;;;23.10;1.00;;;;;;2573641;56;1687;-85
2021/06/21 03:28:30;88482.00;0.29;153.69;0.00;0.00;0.62;;;;;23.20;1.00;;;;;;2573880;56;1929;-86
2021/06/21 03:30:59;226326.00;0.75;391.23;36707.00;0.12;64.19;;;;;23.30;1.00;;;;;;2573344;56;1197;-86
2021/06/21 03:33:27;33171.00;0.11;58.07;0.00;0.00;0.62;;;;;23.10;1.00;;;;;;2573196;56;1148;-86
2021/06/21 03:35:55;505090.00;1.68;870.59;41378.00;0.14;72.27;;;;;23.30;1.00;;;;;;2574000;56;1426;-86
2021/06/21 03:38:24;347529.00;1.16;599.61;28871.00;0.10;50.63;;;;;23.30;1.00;;;;;;2576843;55;1112;-86
2021/06/21 03:40:52;261132.00;0.87;451.10;62168.00;0.21;108.22;;;;;23.10;1.00;;;;;;2573453;56;1663;-86
2021/06/21 03:43:23;354106.00;1.18;610.92;77395.00;0.26;134.54;;;;;23.00;1.00;;;;;;2575120;55;1116;-86
2021/06/21 03:45:52;239510.00;0.80;413.91;91711.00;0.31;159.26;;;;;23.10;1.00;;;;;;2573142;56;1352;-86
2021/06/21 03:48:20;14543.00;0.05;25.82;0.00;0.00;0.62;;;;;23.20;1.00;;;;;;2573223;56;1904;-86
2021/06/21 03:50:47;352455.00;1.17;608.08;93344.00;0.31;162.08;;;;;23.30;1.00;;;;;;2573090;56;1273;-85
2021/06/21 03:53:16;302501.00;1.01;522.22;125370.00;0.42;217.34;;;;;23.10;1.00;;;;;;2575547;55;1484;-86
2021/06/21 03:55:43;83557.00;0.28;145.18;0.00;0.00;0.62;;;;;23.20;1.00;;;;;;2573617;56;1564;-86
2021/06/21 03:58:10;261230.00;0.87;451.26;71408.00;0.24;124.19;;;;;23.50;1.00;;;;;;2575035;55;1125;-86
2021/06/21 04:00:38;160637.00;0.54;278.14;0.00;0.00;0.62;;;;;23.40;1.00;;;;;;2572419;56;1108;-84
2021/06/21 04:03:07;506125.00;1.69;872.37;93385.00;0.31;162.15;;;;;23.20;1.00;;;;;;2573236;56;1735;-84
2021/06/21 04:05:36;338393.00;1.13;583.91;56735.00;0.19;98.83;;;;;22.80;1.00;;;;;;2574921;55;1221;-85
2021/06/21 04:08:05;324083.00;1.08;559.32;116629.00;0.39;202.27;;;;;22.80;1.00;;;;;;2574516;55;1904;-84
2021/06/21 04:10:32;555989.00;1.85;958.28;102634.00;0.34;178.12;;;;;22.70;1.00;;;;;;2572211;56;1117;-84
2021/06/21 04:12:59;0.00;0.00;0.62;0.00;0.00;0.62;;;;;22.90;1.00;;;;;;2574559;55;1132;-84
2021/06/21 04:15:30;120255.00;0.40;208.52;32794.00;0.11;57.42;;;;;22.90;1.00;;;;;;2574727;55;1711;-85
2021/06/21 04:18:00;59152.00;0.20;103.01;0.00;0.00;0.62;;;;;22.90;1.00;;;;;;2572436;56;1104;-84
2021/06/21 04:20:28;41470.00;0.14;72.43;0.00;0.00;0.62;;;;;23.00;1.00;;;;;;2574876;55;1108;-85
2021/06/21 04:22:56;276589.00;0.92;477.67;57925.00;0.19;100.89;;;;;22.80;1.00;;;;;;2572624;55;1780;-85
2021/06/21 04:25:24;154398.00;0.51;267.39;0.00;0.00;0.62;;;;;22.80;1.00;;;;;;2572470;56;1296;-85
2021/06/21 04:27:51;232103.00;0.77;401.17;18054.00;0.06;31.90;;;;;22.90;1.00;;;;;;2573206;56;1924;-85
2021/06/21 04:30:21;100073.00;0.33;173.70;0.00;0.00;0.62;;;;;22.70;1.00;;;;;;2573424;56;1159;-85
2021/06/21 04:32:49;242156.00;0.81;418.46;44497.00;0.15;77.67;;;;;22.60;1.00;;;;;;2573358;56;1094;-85
2021/06/21 04:35:20;15168.00;0.05;26.90;0.00;0.00;0.62;;;;;22.80;1.00;;;;;;2572428;56;1360;-84
2021/06/21 04:37:47;129833.00;0.43;225.04;0.00;0.00;0.62;;;;;23.00;1.00;;;;;;2572678;56;1189;-85
2021/06/21 04:40:17;0.00;0.00;0.62;0.00;0.00;0.62;;;;;22.70;1.00;;;;;;2573936;56;1128;-84
2021/06/21 04:42:44;175541.00;0.59;303.81;0.00;0.00;0.62;;;;;22.40;1.00;;;;;;2574901;55;1046;-85
2021/06/21 04:45:13;414691.00;1.38;715.06;94782.00;0.32;164.56;;;;;22.60;1.00;;;;;;2574733;55;1330;-85
2021/06/21 04:47:40;149132.00;0.50;258.31;53540.00;0.18;93.31;;;;;22.80;1.00;;;;;;2572477;55;1957;-83
2021/06/21 04:50:10;168273.00;0.56;291.29;20248.00;0.07;35.70;;;;;23.40;1.00;;;;;;2569571;56;1297;-84
2021/06/21 04:52:40;492029.00;1.64;848.10;73696.00;0.25;128.15;;;;;23.70;1.00;;;;;;2570890;56;1145;-84
2021/06/21 04:55:11;173839.00;0.58;300.88;34067.00;0.11;59.62;;;;;24.10;1.00;;;;;;2568966;56;1371;-84
2021/06/21 04:57:38;275997.00;0.92;476.66;56190.00;0.19;97.89;;;;;23.90;1.00;;;;;;2569318;56;1180;-84
2021/06/21 05:00:09;108941.00;0.36;189.00;0.00;0.00;0.62;;;;;23.60;1.00;;;;;;2571452;55;1124;-84
2021/06/21 05:02:36;322291.00;1.07;556.24;23726.00;0.08;41.72;;;;;23.50;1.00;;;;;;2569127;56;1168;-84
2021/06/21 05:05:04;1039914.00;3.47;1803.29;213310.00;0.71;368.83;;;;;23.60;1.00;;;;;;2569073;56;1266;-84
2021/06/21 05:07:31;217084.00;0.72;375.33;81111.00;0.27;140.96;;;;;23.80;1.00;;;;;;2568509;56;1113;-84
2021/06/21 05:09:59;136087.00;0.45;235.82;18682.00;0.06;32.99;;;;;23.80;1.00;;;;;;2568740;56;1898;-84
2021/06/21 05:12:26;152254.00;0.51;263.69;47079.00;0.16;82.13;;;;;23.90;1.00;;;;;;2568865;56;1094;-84
2021/06/21 05:14:53;0.00;0.00;0.62;0.00;0.00;0.62;;;;;24.10;1.00;;;;;;2569490;56;1279;-84
2021/06/21 05:17:20;238176.00;0.79;411.61;23234.00;0.08;40.87;;;;;24.20;1.00;;;;;;2568972;56;1105;-84
2021/06/21 05:19:47;107570.00;0.36;186.64;9842.00;0.03;17.68;;;;;24.30;1.00;;;;;;2569214;56;1084;-84
2021/06/21 05:22:14;86463.00;0.29;150.20;0.00;0.00;0.62;;;;;24.50;1.00;;;;;;2571350;55;1140;-83
2021/06/21 05:24:41;155943.00;0.52;270.05;0.00;0.00;0.62;;;;;24.80;1.00;;;;;;2568934;55;1353;-83
2021/06/21 05:27:10;150492.00;0.50;260.66;0.00;0.00;0.62;;;;;25.10;1.00;;;;;;2569549;55;1140;-84
2021/06/21 05:29:36;105936.00;0.35;183.82;0.00;0.00;0.62;;;;;25.60;1.00;;;;;;2571272;55;1979;-84
2021/06/21 05:32:04;310508.00;1.04;535.98;73354.00;0.24;127.56;;;;;25.70;1.00;;;;;;2569401;55;1034;-83
2021/06/21 05:34:32;56022.00;0.19;97.60;0.00;0.00;0.62;;;;;25.80;1.00;;;;;;2569242;56;1327;-83
2021/06/21 05:36:59;20647.00;0.07;36.39;0.00;0.00;0.62;;;;;26.00;1.00;;;;;;2571428;55;1144;-84
2021/06/21 05:39:26;0.00;0.00;0.62;0.00;0.00;0.62;;;;;26.20;1.00;;;;;;2569591;56;1080;-83
2021/06/21 05:41:53;160912.00;0.54;278.61;19189.00;0.06;33.87;;;;;27.00;1.00;;;;;;2569243;56;1197;-85
2021/06/21 05:44:21;0.00;0.00;0.62;0.00;0.00;0.62;;;;;28.50;1.00;;;;;;2570937;55;1719;-85
2021/06/21 05:46:48;0.00;0.00;0.62;0.00;0.00;0.62;;;;;30.60;1.00;;;;;;2569216;56;1101;-84
2021/06/21 05:49:15;34355.00;0.11;60.12;0.00;0.00;0.62;;;;;31.90;1.00;;;;;;2569223;56;1967;-85
2021/06/21 05:51:43;0.00;0.00;0.62;0.00;0.00;0.62;;;;;31.90;1.00;;;;;;2569059;55;1055;-84
2021/06/21 05:54:10;267603.00;0.89;462.22;79069.00;0.26;137.43;;;;;31.80;1.00;;;;;;2571398;55;1372;-85
2021/06/21 05:56:36;0.00;0.00;0.62;0.00;0.00;0.62;;;;;31.10;1.00;;;;;;2568822;56;1219;-85
2021/06/21 05:59:03;100406.00;0.33;174.27;0.00;0.00;0.62;;;;;30.70;1.00;;;;;;2569983;56;1065;-86
2021/06/21 06:01:32;277603.00;0.93;479.42;44895.00;0.15;78.36;;;;;30.60;1.00;;;;;;2576040;55;1182;-85
2021/06/21 06:03:59;21295.00;0.07;37.51;0.00;0.00;0.62;;;;;31.20;1.00;;;;;;2574960;55;1361;-84
2021/06/21 06:06:26;21068.00;0.07;37.12;0.00;0.00;0.62;;;;;32.00;1.00;;;;;;2569739;56;1121;-85
2021/06/21 06:08:53;0.00;0.00;0.62;0.00;0.00;0.62;;;;;33.20;1.00;;;;;;2570199;56;1949;-84
2021/06/21 06:11:20;70005.00;0.23;121.77;0.00;0.00;0.62;;;;;34.10;1.00;;;;;;2569935;56;1216;-84
2021/06/21 06:13:47;34945.00;0.12;61.14;0.00;0.00;0.62;;;;;35.00;1.00;;;;;;2569597;56;1354;-84
2021/06/21 06:16:14;0.00;0.00;0.62;0.00;0.00;0.62;;;;;35.30;1.00;;;;;;2571549;55;1151;-84
2021/06/21 06:18:44;71886.00;0.24;125.02;0.00;0.00;0.62;;;;;35.80;1.00;;;;;;2571896;55;1085;-85
2021/06/21 06:21:11;99488.00;0.33;172.69;0.00;0.00;0.62;;;;;36.70;1.00;;;;;;2572262;55;1074;-84
2021/06/21 06:23:38;169720.00;0.57;293.78;0.00;0.00;0.62;;;;;36.90;1.00;;;;;;2570172;56;1153;-83
2021/06/21 06:26:05;58209.00;0.19;101.38;0.00;0.00;0.62;;;;;35.60;1.00;;;;;;2569858;56;1498;-85
2021/06/21 06:28:33;106926.00;0.36;185.53;22822.00;0.08;40.16;;;;;35.00;1.00;;;;;;2572284;55;1900;-84
2021/06/21 06:31:00;208797.00;0.70;361.06;43571.00;0.15;76.07;;;;;34.60;1.00;;;;;;2571414;56;1074;-84
2021/06/21 06:33:26;232543.00;0.78;401.92;46490.00;0.15;81.12;;;;;35.40;1.00;;;;;;2572160;55;1096;-85
2021/06/21 06:35:55;141631.00;0.47;245.38;47223.00;0.16;82.38;;;;;36.10;1.00;;;;;;2572350;56;1360;-85
2021/06/21 06:38:22;135232.00;0.45;234.35;35653.00;0.12;62.37;;;;;36.40;1.00;;;;;;2572298;55;1150;-87
2021/06/21 06:40:49;216029.00;0.72;373.51;66946.00;0.22;116.48;;;;;36.50;1.00;;;;;;2571170;55;1110;-86
2021/06/21 06:43:15;47372.00;0.16;82.64;0.00;0.00;0.62;;;;;37.10;1.00;;;;;;2570981;56;1077;-86
2021/06/21 06:45:42;98122.00;0.33;170.33;27361.00;0.09;48.01;;;;;36.80;1.00;;;;;;2571512;56;1320;-87
2021/06/21 06:48:09;0.00;0.00;0.62;0.00;0.00;0.62;;;;;37.60;1.00;;;;;;2572641;56;1089;-86
2021/06/21 06:50:36;149422.00;0.50;258.81;0.00;0.00;0.62;;;;;37.90;1.00;;;;;;2573549;56;1953;-86
2021/06/21 06:53:05;43237.00;0.14;75.49;0.00;0.00;0.62;;;;;36.90;1.00;;;;;;2578031;55;1163;-85
2021/06/21 06:58:16;40488.00;0.13;70.73;0.00;0.00;0.62;;;;;37.80;1.00;;;;;;2576253;55;631;-86
2021/06/21 07:00:43;388548.00;1.30;670.12;0.00;0.00;0.62;;;;;37.20;1.00;;;;;;2576162;56;1180;-86
2021/06/21 07:03:12;55036.00;0.18;95.89;0.00;0.00;0.62;;;;;37.40;1.00;;;;;;2574738;55;1182;-85
2021/06/21 07:05:41;81782.00;0.27;142.12;0.00;0.00;0.62;;;;;36.90;1.00;;;;;;2573791;56;1263;-85
2021/06/21 07:08:10;72069.00;0.24;125.34;0.00;0.00;0.62;;;;;37.20;1.00;;;;;;2575083;56;1101;-86
2021/06/21 07:10:37;286870.00;0.96;495.35;88491.00;0.29;153.70;;;;;37.60;1.00;;;;;;2575248;56;1962;-87
2021/06/21 07:13:04;126476.00;0.42;219.25;0.00;0.00;0.62;;;;;38.20;1.00;;;;;;2575503;56;1184;-87
2021/06/21 07:15:31;64588.00;0.22;112.41;0.00;0.00;0.62;;;;;38.60;1.00;;;;;;2575291;56;1307;-87
2021/06/21 07:17:58;215203.00;0.72;372.09;83457.00;0.28;145.01;;;;;37.90;1.00;;;;;;2575799;55;1097;-87
2021/06/21 07:20:25;32354.00;0.11;56.66;0.00;0.00;0.62;;;;;38.20;1.00;;;;;;2576550;55;1180;-86
2021/06/21 07:22:52;207160.00;0.69;358.25;0.00;0.00;0.62;;;;;38.00;1.00;;;;;;2573045;56;1235;-86
2021/06/21 07:25:20;31838.00;0.11;55.76;0.00;0.00;0.62;;;;;37.10;1.00;;;;;;2572660;56;1514;-85
2021/06/21 07:27:47;96820.00;0.32;168.08;0.00;0.00;0.62;;;;;36.10;1.00;;;;;;2574788;55;1187;-83
2021/06/21 07:30:16;147904.00;0.49;256.20;83194.00;0.28;144.55;;;;;35.60;1.00;;;;;;2572430;56;1969;-84
2021/06/21 07:32:43;184942.00;0.62;320.00;86112.00;0.29;149.59;;;;;35.30;1.00;;;;;;2575482;55;1235;-84
2021/06/21 07:35:10;27998.00;0.09;49.12;0.00;0.00;0.62;;;;;35.40;1.00;;;;;;2572993;56;1340;-85
2021/06/21 07:37:37;28994.00;0.10;50.84;0.00;0.00;0.62;;;;;36.20;1.00;;;;;;2575650;55;1708;-84
2021/06/21 07:40:06;0.00;0.00;0.62;0.00;0.00;0.62;;;;;37.20;1.00;;;;;;2572633;56;1165;-85
2021/06/21 07:42:35;0.00;0.00;0.62;0.00;0.00;0.62;;;;;36.40;1.00;;;;;;2573471;56;1129;-84
2021/06/21 07:45:02;0.00;0.00;0.62;0.00;0.00;0.62;;;;;35.90;1.00;;;;;;2574086;56;1284;-84
2021/06/21 07:47:29;305388.00;1.02;527.18;17993.00;0.06;31.79;;;;;36.00;1.00;;;;;;2575181;55;1690;-84
2021/06/21 07:49:56;38684.00;0.13;67.61;0.00;0.00;0.62;;;;;36.60;1.00;;;;;;2575720;55;1936;-85
2021/06/21 07:52:23;244158.00;0.81;421.90;104219.00;0.35;180.85;;;;;36.50;1.00;;;;;;2574939;55;1097;-85
2021/06/21 07:54:50;0.00;0.00;0.62;0.00;0.00;0.62;;;;;36.70;1.00;;;;;;2574372;56;1264;-85
2021/06/21 07:57:17;0.00;0.00;0.62;0.00;0.00;0.62;;;;;37.10;1.00;;;;;;2574260;55;1112;-85
2021/06/21 07:59:45;114377.00;0.38;198.38;0.00;0.00;0.62;;;;;36.80;1.00;;;;;;2574395;56;1090;-85
2021/06/21 08:02:12;0.00;0.00;0.62;0.00;0.00;0.62;;;;;35.90;1.00;;;;;;2574586;55;1138;-83
2021/06/21 08:04:39;365.00;0.00;1.25;0.00;0.00;0.62;;;;;35.10;1.00;;;;;;2574787;56;1339;-83
2021/06/21 08:07:06;0.00;0.00;0.62;0.00;0.00;0.62;;;;;34.30;1.00;;;;;;2573588;56;1139;-83
2021/06/21 08:09:33;81489.00;0.27;141.61;0.00;0.00;0.62;;;;;34.10;1.00;;;;;;2575124;55;1953;-85
2021/06/21 08:12:00;53210.00;0.18;92.74;0.00;0.00;0.62;;;;;33.10;1.00;;;;;;2575869;55;1104;-84
2021/06/21 08:14:26;128069.00;0.43;222.00;19414.00;0.06;34.26;;;;;33.10;1.00;;;;;;2575342;56;1330;-83
2021/06/21 08:16:55;0.00;0.00;0.62;0.00;0.00;0.62;;;;;33.10;1.00;;;;;;2575361;56;1176;-85
2021/06/21 08:19:21;0.00;0.00;0.62;0.00;0.00;0.62;;;;;33.10;1.00;;;;;;2575446;55;1179;-83
2021/06/21 08:21:49;0.00;0.00;0.62;0.00;0.00;0.62;;;;;33.40;1.00;;;;;;2574801;56;1216;-83
2021/06/21 08:24:15;0.00;0.00;0.62;0.00;0.00;0.62;;;;;34.30;1.00;;;;;;2572461;56;1276;-84
2021/06/21 08:26:42;0.00;0.00;0.62;0.00;0.00;0.62;;;;;35.20;1.00;;;;;;2571021;56;1169;-84
2021/06/21 08:29:09;0.00;0.00;0.62;0.00;0.00;0.62;;;;;35.20;1.00;;;;;;2571726;55;1981;-84
2021/06/21 08:31:36;189588.00;0.63;328.00;43119.00;0.14;75.28;;;;;36.10;1.00;;;;;;2571242;56;1136;-84
2021/06/21 08:34:04;0.00;0.00;0.62;0.00;0.00;0.62;;;;;36.30;1.00;;;;;;2570919;56;1323;-83
2021/06/21 08:36:31;133689.00;0.45;231.69;24604.00;0.08;43.24;;;;;35.40;1.00;;;;;;2572560;55;1141;-83
2021/06/21 08:38:58;0.00;0.00;0.62;0.00;0.00;0.62;;;;;35.50;1.00;;;;;;2570648;56;1165;-83
2021/06/21 08:41:25;0.00;0.00;0.62;0.00;0.00;0.62;;;;;35.70;1.00;;;;;;2571322;56;1091;-83
2021/06/21 08:43:52;22659.00;0.08;39.87;0.00;0.00;0.62;;;;;36.30;1.00;;;;;;2571110;56;1342;-84
2021/06/21 08:46:20;0.00;0.00;0.62;0.00;0.00;0.62;;;;;35.80;1.00;;;;;;2570309;56;1102;-83
2021/06/21 08:48:48;313024.00;1.04;540.31;101931.00;0.34;176.90;;;;;35.30;1.00;;;;;;2570248;56;1069;-83
2021/06/21 08:51:17;0.00;0.00;0.62;0.00;0.00;0.62;;;;;34.90;1.00;;;;;;2569981;55;1120;-83
2021/06/21 08:53:44;251454.00;0.84;434.45;16229.00;0.05;28.74;;;;;35.50;1.00;;;;;;2570145;56;1262;-83
2021/06/21 08:56:12;0.00;0.00;0.62;0.00;0.00;0.62;;;;;35.80;1.00;;;;;;2569466;56;1142;-83
2021/06/21 08:58:39;184900.00;0.62;319.93;39923.00;0.13;69.76;;;;;36.00;1.00;;;;;;2572549;56;1169;-82
2021/06/21 09:01:06;0.00;0.00;0.62;0.00;0.00;0.62;;;;;36.00;1.00;;;;;;2576962;55;1043;-83
2021/06/21 09:03:34;0.00;0.00;0.62;0.00;0.00;0.62;;;;;36.10;1.00;;;;;;2571548;55;1159;-83
2021/06/21 09:06:01;104546.00;0.35;181.42;0.00;0.00;0.62;;;;;36.50;1.00;;;;;;2568903;56;1229;-82
2021/06/21 09:08:29;45503.00;0.15;79.41;0.00;0.00;0.62;;;;;36.30;1.00;;;;;;2568835;56;1159;-82
2021/06/21 09:10:56;0.00;0.00;0.62;0.00;0.00;0.62;;;;;36.30;1.00;;;;;;2569491;55;1972;-82
2021/06/21 09:13:23;0.00;0.00;0.62;0.00;0.00;0.62;;;;;36.30;1.00;;;;;;2572217;55;1113;-82
2021/06/21 09:15:52;91536.00;0.31;158.96;0.00;0.00;0.62;;;;;35.80;1.00;;;;;;2569724;56;1253;-82
2021/06/21 09:18:35;0.00;0.00;0.62;0.00;0.00;0.62;;;;;35.50;1.00;;;;;;2569783;56;1143;-82
2021/06/21 09:21:27;0.00;0.00;0.62;0.00;0.00;0.62;;;;;35.60;1.00;;;;;;2571884;55;1445;-82
2021/06/21 09:23:57;30102.00;0.10;52.76;0.00;0.00;0.62;;;;;35.60;1.00;;;;;;2570078;56;1437;-84
2021/06/21 09:26:27;76185.00;0.25;132.45;0.00;0.00;0.62;;;;;35.30;1.00;;;;;;2572692;55;1632;-84
2021/06/21 09:28:55;59185.00;0.20;103.07;0.00;0.00;0.62;;;;;34.50;1.00;;;;;;2573286;55;1145;-86
2021/06/21 09:31:25;0.00;0.00;0.62;0.00;0.00;0.62;;;;;34.00;1.00;;;;;;2570165;56;1942;-86
2021/06/21 09:33:52;0.00;0.00;0.62;0.00;0.00;0.62;;;;;33.50;1.00;;;;;;2572786;55;1350;-86
2021/06/21 09:36:28;0.00;0.00;0.62;0.00;0.00;0.62;;;;;33.20;1.00;;;;;;2570485;55;1123;-85
2021/06/21 09:39:23;0.00;0.00;0.62;0.00;0.00;0.62;;;;;32.90;1.00;;;;;;2572266;55;1644;-86
2021/06/21 09:42:08;373694.00;1.25;644.59;99246.00;0.33;172.27;;;;;32.80;1.00;;;;;;2569961;55;1140;-85
2021/06/21 09:44:37;219930.00;0.73;380.22;60651.00;0.20;105.60;;;;;32.90;1.00;;;;;;2571834;55;1628;-86
2021/06/21 09:47:27;163975.00;0.55;283.89;54040.00;0.18;94.17;;;;;32.90;1.00;;;;;;2570472;56;1111;-85
2021/06/21 09:50:07;215248.00;0.72;372.17;37756.00;0.13;66.01;;;;;33.10;1.00;;;;;;2569985;56;1920;-84
2021/06/21 09:52:36;0.00;0.00;0.62;0.00;0.00;0.62;;;;;33.00;1.00;;;;;;2571472;55;1212;-84
2021/06/21 09:55:14;0.00;0.00;0.62;0.00;0.00;0.62;;;;;32.30;1.00;;;;;;2570018;56;1335;-85
2021/06/21 09:57:42;50033.00;0.17;87.24;0.00;0.00;0.62;;;;;32.40;1.00;;;;;;2570421;56;1156;-85
2021/06/21 10:00:11;205976.00;0.69;356.21;58656.00;0.20;102.15;;;;;32.70;1.00;;;;;;2569744;56;1212;-85
2021/06/21 10:02:39;170648.00;0.57;295.38;63151.00;0.21;109.92;;;;;32.80;1.00;;;;;;2572469;55;1105;-86
2021/06/21 10:05:18;199403.00;0.66;344.90;61451.00;0.20;106.99;;;;;32.70;1.00;;;;;;2572877;55;1214;-85
2021/06/21 10:07:44;203708.00;0.68;352.31;76095.00;0.25;132.29;;;;;32.70;1.00;;;;;;2571533;55;1100;-84
2021/06/21 10:10:18;187631.00;0.63;324.63;61055.00;0.20;106.30;;;;;32.60;1.00;;;;;;2570079;56;1925;-86
2021/06/21 10:12:45;206177.00;0.69;356.56;63666.00;0.21;110.81;;;;;32.70;1.00;;;;;;2569869;55;1082;-86